Phoenix, Arizona
Current Conditions -  °F | °C
As of 11:51 PM on Thursday 30 Oct 2014 (Local Time) from KPHX Reporting Station
Broken Clouds Broken Clouds  
Wind Chill: 22°   Ceiling: 25000
Heat Index: 22°   Visibility: 10mi
Dew Point: 10°   Wind: 0mph
Humidity: 46%   Direction: NA
Pressure: 29.91"   Gusts: NA
Location:  33.45°N, 112.08°W
Report Text: KPHX 310651Z 00000KT 10SM BKN250 22/10 A2991 RMK AO2 SLP112 T02220100 403440178
Loading
Personal Weather Stations






























Interactive Weather Map
Tropical Storm Tracking
New forecast layout! Learn more

10-Day Weather Forecast

Advertisements
Track Severe Weather on mobile